Arlington, Vermont
Current Conditions -  °F | °C
As of 4:54 AM on Sunday 23 Nov 2014 (Local Time) from KDDH Reporting Station
Haze Haze  
Wind Chill: 39°   Ceiling: 2500
Heat Index: 39°   Visibility: 4mi
Dew Point: 37°   Wind: 3mph
Humidity: 93%   Direction: 170°S
Pressure: 30.06"   Gusts: NA
Location:  43.07°N, 73.15°W
Report Text: KDDH 230954Z AUTO 17003KT 4SM BR OVC025 04/03 A3006 RMK AO2 RAE00 SLP184 P0000 T00390028
Loading
Personal Weather Stations






























Interactive Weather Map New forecast layout! Learn more

10-Day Weather Forecast

Advertisements
Track Severe Weather on mobile